ADDS METAR Data INFO
IDs: Format: Raw Decoded Include TAF

Data at: 1958 UTC 15 Dec 2017

KEYE 151953Z AUTO 27014G21KT 10SM OVC028 M01/M07 A2998 RMK AO2 SLP160 T10061072
KEYE 151853Z AUTO 27011G18KT 240V310 10SM OVC025 M01/M07 A2998 RMK AO2 SLP160 T10061067
KEYE 151753Z AUTO 25011G17KT 210V280 10SM OVC023 M01/M07 A2999 RMK AO2 SLP163 T10061067 11006 21033 58005
KEYE 151653Z AUTO VRB06G14KT 10SM OVC023 M02/M08 A3000 RMK AO2 SLP167 T10171078
KEYE 151553Z AUTO 23008KT 10SM OVC026 M02/M08 A3001 RMK AO2 SLP171 T10221083
KEYE 151537Z AUTO VRB06KT 10SM BKN026 OVC046 M02/M08 A3000 RMK AO2 T10221083
KEYE 151453Z AUTO 26008G18KT 10SM OVC046 M03/M08 A3000 RMK AO2 SLP169 T10281083 55001
KEYE 151353Z AUTO 23007KT 10SM OVC042 M03/M09 A2998 RMK AO2 SLP163 T10281089
KEYE 151334Z AUTO VRB06KT 10SM SCT029 OVC042 M03/M09 A2999 RMK AO2 T10281089
KEYE 151311Z AUTO 26007KT 220V280 10SM OVC029 M03/M09 A3001 RMK AO2 T10281089
KEYE 151253Z AUTO 25006KT 10SM OVC030 M03/M09 A3001 RMK AO2 SLP171 T10281089
KEYE 151153Z AUTO VRB04KT 10SM OVC034 M03/M09 A3000 RMK AO2 SLP170 T10331089 11033 21044 56004
KEYE 151053Z AUTO 22003KT 10SM OVC036 M03/M09 A3001 RMK AO2 SLP170 T10331094
KEYE 150953Z AUTO 21005KT 10SM OVC036 M03/M10 A3001 RMK AO2 SLP171 T10331100
KEYE 150853Z AUTO 21003KT 10SM OVC037 M03/M09 A3002 RMK AO2 SLP174 T10331094 56009
KEYE 150753Z AUTO 19004KT 10SM OVC036 M04/M09 A3002 RMK AO2 SLP174 T10391094
KEYE 150653Z AUTO 19003KT 10SM OVC040 M04/M09 A3003 RMK AO2 SLP177 T10391094
KEYE 150553Z AUTO 18003KT 10SM OVC042 M04/M09 A3005 RMK AO2 SLP184 T10441094 11022 21050 58010
KEYE 150453Z AUTO 18003KT 10SM OVC042 M04/M09 A3006 RMK AO2 SLP188 T10441094 400001050
KEYE 150353Z AUTO 15003KT 10SM BKN043 M04/M10 A3007 RMK AO2 SLP192 T10391100
KEYE 150253Z AUTO 00000KT 10SM CLR M04/M11 A3008 RMK AO2 SLP195 T10441106 50004
KEYE 150153Z AUTO 19003KT 10SM CLR M03/M11 A3008 RMK AO2 SLP196 T10331111
KEYE 150053Z AUTO 00000KT 10SM CLR M03/M12 A3006 RMK AO2 SLP190 T10281117
KEYE 142353Z AUTO 00000KT 10SM CLR M02/M11 A3006 RMK AO2 SLP189 T10221111 11006 21022 51011
KEYE 142253Z AUTO 03003KT 10SM SCT043 M02/M11 A3006 RMK AO2 SLP187 T10171111
KEYE 142153Z AUTO 00000KT 10SM CLR M01/M12 A3005 RMK AO2 SLP183 T10111117
KEYE 142053Z AUTO 00000KT 10SM CLR M01/M13 A3003 RMK AO2 SLP178 T10111128 55001
KEYE 141953Z AUTO 08008KT 10SM CLR M01/M12 A3002 RMK AO2 SLP175 T10061122
KEYE 141853Z AUTO VRB03KT 10SM CLR M01/M14 A3003 RMK AO2 SLP178 T10111139
KEYE 141753Z AUTO 05003KT 10SM CLR M02/M12 A3003 RMK AO2 SLP179 T10171117 11011 21044 50006
KEYE 141653Z AUTO 06007KT 10SM CLR M02/M11 A3005 RMK AO2 SLP186 T10221111
KEYE 141553Z AUTO 03008KT 10SM CLR M03/M11 A3005 RMK AO2 SLP182 T10281106
KEYE 141453Z AUTO 03007KT 10SM CLR M03/M11 A3002 RMK AO2 SLP172 T10331106 51027
KEYE 141353Z AUTO 02005KT 10SM CLR M04/M11 A2999 RMK AO2 SLP161 T10441106
KEYE 141253Z AUTO 36008KT 10SM BKN036 M04/M09 A2996 RMK AO2 SLP155 T10391094
KEYE 141153Z AUTO 01009KT 10SM OVC030 M03/M09 A2993 RMK AO2 SLP143 T10281089 11011 21028 51025
KEYE 141053Z AUTO 35007KT 10SM OVC026 M02/M08 A2990 RMK AO2 SLP131 T10221078
KEYE 140953Z AUTO 34012KT 10SM OVC025 M01/M08 A2986 RMK AO2 SLP116 T10111078
KEYE 140853Z AUTO 36011KT 10SM OVC025 M01/M07 A2981 RMK AO2 SLP101 T10111072 51034